Time;durP1;ratioP1;P1;durP2;ratioP2;P2;SDS_P1;SDS_P2;PMS_P1;PMS_P2;Temp;Humidity;BMP_temperature;BMP_pressure;BME280_temperature;BME280_humidity;BME280_pressure;Samples;Min_cycle;Max_cycle;Signal;HPM_P1;HPM_P2
2023/05/06 00:01:40;;;;;;;7.28;2.92;;;;;;;;;;10303893;28;20038;-57
2023/05/06 00:06:41;;;;;;;5.45;3.40;;;;;;;;;;10337231;28;20413;-60
2023/05/06 00:11:41;;;;;;;3.67;3.00;;;;;;;;;;10314016;28;20108;-57
2023/05/06 00:16:42;;;;;;;5.22;3.55;;;;;;;;;;10327303;28;20030;-58
2023/05/06 00:21:43;;;;;;;3.75;3.00;;;;;;;;;;10295580;28;20050;-57
2023/05/06 00:26:43;;;;;;;3.38;3.08;;;;;;;;;;10295033;28;20063;-58
2023/05/06 00:31:44;;;;;;;4.90;3.25;;;;;;;;;;10310680;28;20034;-58
2023/05/06 00:36:44;;;;;;;4.00;2.85;;;;;;;;;;10322529;28;20118;-58
2023/05/06 00:41:45;;;;;;;6.75;3.15;;;;;;;;;;10331909;28;20041;-59
2023/05/06 00:46:46;;;;;;;5.05;3.33;;;;;;;;;;10325544;28;20047;-59
2023/05/06 00:51:47;;;;;;;6.18;3.13;;;;;;;;;;10320884;28;20029;-64
2023/05/06 00:56:48;;;;;;;3.80;3.17;;;;;;;;;;10325112;28;20030;-63
2023/05/06 01:01:48;;;;;;;2.90;2.60;;;;;;;;;;10319996;28;20110;-64
2023/05/06 01:07:11;;;;;;;5.03;3.08;;;;;;;;;;10306927;28;20121;-66
2023/05/06 01:12:37;;;;;;;7.13;3.08;;;;;;;;;;10336805;28;20026;-58
2023/05/06 01:17:44;;;;;;;3.42;2.90;;;;;;;;;;10336967;28;20470;-60
2023/05/06 01:22:45;;;;;;;2.80;2.60;;;;;;;;;;10323761;28;20035;-59
2023/05/06 01:27:46;;;;;;;4.15;3.17;;;;;;;;;;10314587;28;20031;-57
2023/05/06 01:33:04;;;;;;;3.33;2.67;;;;;;;;;;10304119;28;20113;-59
2023/05/06 01:38:34;;;;;;;6.32;3.00;;;;;;;;;;10287154;28;20062;-59
2023/05/06 01:43:40;;;;;;;3.85;3.08;;;;;;;;;;10315764;28;20063;-60
2023/05/06 01:48:44;;;;;;;3.45;3.13;;;;;;;;;;10329489;28;20208;-57
2023/05/06 01:53:44;;;;;;;3.28;2.80;;;;;;;;;;10298538;28;20592;-59
2023/05/06 01:58:45;;;;;;;4.18;3.13;;;;;;;;;;10315234;28;20333;-57
2023/05/06 02:03:45;;;;;;;2.92;2.63;;;;;;;;;;10318523;28;20045;-61
2023/05/06 02:08:46;;;;;;;4.32;3.10;;;;;;;;;;10313602;28;20019;-63
2023/05/06 02:13:47;;;;;;;6.40;2.83;;;;;;;;;;10315815;28;20039;-63
2023/05/06 02:18:48;;;;;;;3.70;2.90;;;;;;;;;;10291761;28;20038;-64
2023/05/06 02:23:49;;;;;;;2.65;2.45;;;;;;;;;;10318798;28;20029;-63
2023/05/06 02:28:49;;;;;;;3.28;2.92;;;;;;;;;;10302098;28;20023;-62
2023/05/06 02:33:50;;;;;;;3.97;3.00;;;;;;;;;;10307368;28;20413;-63
2023/05/06 02:38:50;;;;;;;3.00;2.40;;;;;;;;;;10315086;28;20430;-62
2023/05/06 02:43:51;;;;;;;2.92;2.72;;;;;;;;;;10326962;28;20045;-64
2023/05/06 02:48:51;;;;;;;6.00;2.90;;;;;;;;;;10329677;28;20043;-64
2023/05/06 02:53:52;;;;;;;3.10;2.88;;;;;;;;;;10299979;28;20057;-63
2023/05/06 02:58:52;;;;;;;4.82;3.35;;;;;;;;;;10328828;28;20313;-64
2023/05/06 03:03:53;;;;;;;4.45;2.80;;;;;;;;;;10331426;28;20113;-64
2023/05/06 03:08:54;;;;;;;4.10;3.00;;;;;;;;;;10329990;28;20034;-65
2023/05/06 03:13:54;;;;;;;2.80;2.50;;;;;;;;;;10331177;28;20046;-57
2023/05/06 03:18:55;;;;;;;2.90;2.53;;;;;;;;;;10319386;28;20093;-59
2023/05/06 03:23:56;;;;;;;2.70;2.50;;;;;;;;;;10332845;28;20031;-57
2023/05/06 03:28:56;;;;;;;3.28;2.50;;;;;;;;;;10321613;28;20085;-57
2023/05/06 03:33:57;;;;;;;4.20;2.90;;;;;;;;;;10329228;28;20053;-57
2023/05/06 03:38:57;;;;;;;3.13;2.83;;;;;;;;;;10329479;28;20030;-59
2023/05/06 03:43:58;;;;;;;2.78;2.20;;;;;;;;;;10328829;28;20425;-56
2023/05/06 03:48:59;;;;;;;2.97;2.70;;;;;;;;;;10329316;28;20469;-58
2023/05/06 03:54:00;;;;;;;5.30;2.40;;;;;;;;;;10325317;28;20387;-57
2023/05/06 03:59:00;;;;;;;2.70;2.50;;;;;;;;;;10320880;28;20062;-57
2023/05/06 04:04:01;;;;;;;2.58;2.38;;;;;;;;;;10326629;28;20038;-59
2023/05/06 04:09:05;;;;;;;2.90;2.60;;;;;;;;;;10306272;28;20294;-57
2023/05/06 04:14:05;;;;;;;3.22;2.40;;;;;;;;;;10326759;28;20066;-58
2023/05/06 04:19:07;;;;;;;4.60;2.70;;;;;;;;;;10306611;28;20022;-57
2023/05/06 04:24:07;;;;;;;2.50;2.30;;;;;;;;;;10321650;28;20033;-61
2023/05/06 04:29:08;;;;;;;5.47;2.53;;;;;;;;;;10296558;28;20474;-57
2023/05/06 04:34:09;;;;;;;2.45;2.25;;;;;;;;;;10316248;28;20478;-59
2023/05/06 04:39:10;;;;;;;2.30;2.10;;;;;;;;;;10320554;28;20038;-57
2023/05/06 04:44:11;;;;;;;2.88;2.58;;;;;;;;;;10339724;28;20053;-57
2023/05/06 04:49:12;;;;;;;2.55;2.35;;;;;;;;;;10326880;28;20385;-60
2023/05/06 04:54:12;;;;;;;2.22;2.03;;;;;;;;;;10326994;28;20105;-59
2023/05/06 04:59:14;;;;;;;2.70;2.50;;;;;;;;;;10337972;28;20046;-57
2023/05/06 05:04:15;;;;;;;2.55;2.35;;;;;;;;;;10325126;28;20023;-57
2023/05/06 05:09:16;;;;;;;3.08;2.40;;;;;;;;;;10315823;28;20039;-61
2023/05/06 05:14:17;;;;;;;2.88;2.40;;;;;;;;;;10325795;28;20109;-58
2023/05/06 05:19:17;;;;;;;3.10;2.38;;;;;;;;;;10322962;28;20486;-62
2023/05/06 05:24:18;;;;;;;3.30;2.30;;;;;;;;;;10315345;28;20490;-62
2023/05/06 05:29:18;;;;;;;2.60;2.40;;;;;;;;;;10315420;28;20037;-64
2023/05/06 05:34:19;;;;;;;2.40;2.20;;;;;;;;;;10326400;28;20029;-63
2023/05/06 05:39:20;;;;;;;3.80;2.40;;;;;;;;;;10318603;28;20371;-63
2023/05/06 05:44:20;;;;;;;2.53;2.33;;;;;;;;;;10318102;28;20081;-62
2023/05/06 05:49:21;;;;;;;2.63;2.40;;;;;;;;;;10306744;28;20042;-57
2023/05/06 05:54:22;;;;;;;2.70;2.50;;;;;;;;;;10315425;28;20650;-59
2023/05/06 05:59:22;;;;;;;2.80;2.40;;;;;;;;;;10315102;28;20077;-57
2023/05/06 06:04:23;;;;;;;2.70;2.50;;;;;;;;;;10316063;28;20031;-56
2023/05/06 06:09:23;;;;;;;2.63;2.42;;;;;;;;;;10311209;28;20031;-58
2023/05/06 06:14:24;;;;;;;2.50;2.30;;;;;;;;;;10315809;28;20042;-58
2023/05/06 06:19:25;;;;;;;2.35;2.13;;;;;;;;;;10323077;28;20486;-58
2023/05/06 06:24:25;;;;;;;3.85;2.00;;;;;;;;;;10324756;28;20030;-61
2023/05/06 06:29:26;;;;;;;2.15;1.95;;;;;;;;;;10324755;28;20441;-57
2023/05/06 06:34:27;;;;;;;2.80;2.60;;;;;;;;;;10329908;28;20125;-55
2023/05/06 06:39:28;;;;;;;2.40;2.20;;;;;;;;;;10331251;28;20054;-58
2023/05/06 06:44:29;;;;;;;2.35;2.15;;;;;;;;;;10331948;28;20050;-57
2023/05/06 06:49:30;;;;;;;2.28;2.13;;;;;;;;;;10347170;28;20042;-55
2023/05/06 06:54:31;;;;;;;2.42;2.22;;;;;;;;;;10324116;28;20035;-57
2023/05/06 06:59:31;;;;;;;6.57;2.50;;;;;;;;;;10344228;28;20033;-65
2023/05/06 07:04:32;;;;;;;2.60;2.40;;;;;;;;;;10313891;28;20034;-68
2023/05/06 07:09:32;;;;;;;2.58;2.38;;;;;;;;;;10328491;28;20085;-63
2023/05/06 07:14:34;;;;;;;2.38;2.17;;;;;;;;;;10330667;28;20021;-52
2023/05/06 07:19:34;;;;;;;2.33;2.13;;;;;;;;;;10330306;28;20034;-57
2023/05/06 07:24:35;;;;;;;6.10;2.83;;;;;;;;;;10336089;28;20426;-58
2023/05/06 07:29:36;;;;;;;3.63;2.63;;;;;;;;;;10329224;28;20374;-57
2023/05/06 07:34:37;;;;;;;7.15;2.60;;;;;;;;;;10326352;28;20034;-58
2023/05/06 07:39:38;;;;;;;3.80;2.67;;;;;;;;;;10325057;28;21913;-57
2023/05/06 07:44:39;;;;;;;7.13;5.20;;;;;;;;;;10323065;28;20046;-59
2023/05/06 07:49:39;;;;;;;9.32;6.93;;;;;;;;;;10312912;28;20066;-59
2023/05/06 07:54:40;;;;;;;12.02;10.50;;;;;;;;;;10324142;28;20026;-59
2023/05/06 07:59:48;;;;;;;43.88;19.35;;;;;;;;;;10324146;28;20045;-60
2023/05/06 08:04:49;;;;;;;48.15;19.63;;;;;;;;;;10321516;28;20029;-55
2023/05/06 08:09:49;;;;;;;41.28;21.42;;;;;;;;;;10320330;28;20038;-60
2023/05/06 08:14:50;;;;;;;33.13;21.02;;;;;;;;;;10311919;28;20041;-51
2023/05/06 08:19:50;;;;;;;35.92;19.40;;;;;;;;;;10312958;28;20437;-56
2023/05/06 08:24:51;;;;;;;26.77;17.10;;;;;;;;;;10328222;28;20045;-61
2023/05/06 08:29:52;;;;;;;30.02;17.00;;;;;;;;;;10312036;28;20034;-60
2023/05/06 08:34:53;;;;;;;23.52;16.65;;;;;;;;;;10320694;28;20030;-62
2023/05/06 08:39:53;;;;;;;25.55;15.93;;;;;;;;;;10326567;28;20045;-62
2023/05/06 08:44:55;;;;;;;25.80;15.95;;;;;;;;;;10307845;28;20046;-65
2023/05/06 08:49:55;;;;;;;25.60;15.57;;;;;;;;;;10320973;28;20089;-62
2023/05/06 08:55:00;;;;;;;28.35;14.90;;;;;;;;;;10307263;28;20042;-65
2023/05/06 09:00:01;;;;;;;29.52;13.68;;;;;;;;;;10321422;28;20109;-66
2023/05/06 09:05:01;;;;;;;27.00;14.88;;;;;;;;;;10316773;28;20041;-62
2023/05/06 09:10:13;;;;;;;16.77;13.60;;;;;;;;;;10324795;28;20034;-63
2023/05/06 09:15:13;;;;;;;20.52;13.20;;;;;;;;;;10323101;28;20397;-64
2023/05/06 09:20:14;;;;;;;24.48;15.82;;;;;;;;;;10308763;28;20041;-61
2023/05/06 09:25:15;;;;;;;25.17;14.07;;;;;;;;;;10320589;28;20031;-62
2023/05/06 09:30:16;;;;;;;19.70;14.45;;;;;;;;;;10307592;28;20034;-61
2023/05/06 09:35:16;;;;;;;22.80;15.80;;;;;;;;;;10320969;28;20118;-62
2023/05/06 09:40:17;;;;;;;20.92;15.40;;;;;;;;;;10310074;28;20171;-62
2023/05/06 09:45:17;;;;;;;24.42;16.10;;;;;;;;;;10337534;28;20756;-62
2023/05/06 09:50:22;;;;;;;18.00;15.68;;;;;;;;;;10303355;28;20034;-62
2023/05/06 09:55:25;;;;;;;22.77;16.25;;;;;;;;;;10303267;28;20030;-62
2023/05/06 10:00:26;;;;;;;17.98;15.48;;;;;;;;;;10321185;28;21124;-61
2023/05/06 10:05:29;;;;;;;20.70;15.80;;;;;;;;;;10304060;28;20038;-62
2023/05/06 10:10:30;;;;;;;20.75;16.77;;;;;;;;;;10326728;28;20038;-62
2023/05/06 10:15:31;;;;;;;27.17;17.58;;;;;;;;;;10324468;28;20118;-61
2023/05/06 10:20:34;;;;;;;23.15;16.65;;;;;;;;;;10305880;28;20501;-62
2023/05/06 10:25:44;;;;;;;22.80;16.13;;;;;;;;;;10321381;28;20026;-62
2023/05/06 10:30:46;;;;;;;20.52;15.52;;;;;;;;;;10321917;28;20026;-60
2023/05/06 10:36:12;;;;;;;17.17;15.07;;;;;;;;;;10300288;28;20235;-63
2023/05/06 10:41:13;;;;;;;19.70;16.15;;;;;;;;;;10300423;28;20409;-58
2023/05/06 10:46:16;;;;;;;18.42;15.45;;;;;;;;;;10317446;28;20053;-62
2023/05/06 10:51:20;;;;;;;18.63;15.60;;;;;;;;;;10321220;28;20594;-62
2023/05/06 10:56:20;;;;;;;20.58;14.50;;;;;;;;;;10311002;28;20130;-63
2023/05/06 11:01:25;;;;;;;17.60;14.77;;;;;;;;;;10321874;28;20031;-62
2023/05/06 11:06:39;;;;;;;16.90;14.32;;;;;;;;;;10334804;28;20465;-62
2023/05/06 11:11:46;;;;;;;20.67;14.73;;;;;;;;;;10320690;28;20367;-62
2023/05/06 11:16:51;;;;;;;17.50;13.27;;;;;;;;;;10335221;28;20029;-59
2023/05/06 11:21:56;;;;;;;18.92;13.43;;;;;;;;;;10324832;28;20050;-62
2023/05/06 11:26:58;;;;;;;18.35;12.02;;;;;;;;;;10320676;28;20030;-62
2023/05/06 11:31:59;;;;;;;17.92;11.95;;;;;;;;;;10325059;28;20062;-61
2023/05/06 11:37:05;;;;;;;14.32;11.80;;;;;;;;;;10322516;28;20507;-62
2023/05/06 11:42:07;;;;;;;18.40;11.43;;;;;;;;;;10312909;28;20609;-59
2023/05/06 11:47:08;;;;;;;16.73;11.23;;;;;;;;;;10334936;28;20522;-58
2023/05/06 11:52:10;;;;;;;16.52;10.82;;;;;;;;;;10325983;28;20035;-61
2023/05/06 11:57:12;;;;;;;12.43;11.13;;;;;;;;;;10317636;28;20151;-61
2023/05/06 12:02:14;;;;;;;16.38;11.77;;;;;;;;;;10319917;28;20057;-62
2023/05/06 12:07:16;;;;;;;14.18;11.93;;;;;;;;;;10323461;28;20041;-57
2023/05/06 12:12:21;;;;;;;15.00;11.57;;;;;;;;;;10326750;28;20029;-60
2023/05/06 12:17:22;;;;;;;13.88;11.30;;;;;;;;;;10322885;28;20073;-59
2023/05/06 12:22:25;;;;;;;16.10;11.63;;;;;;;;;;10319882;28;20406;-61
2023/05/06 12:27:34;;;;;;;17.25;12.48;;;;;;;;;;10328832;28;20057;-60
2023/05/06 12:32:34;;;;;;;16.48;11.00;;;;;;;;;;10320950;28;20126;-61
2023/05/06 12:37:35;;;;;;;20.35;12.95;;;;;;;;;;10315419;28;20038;-63
2023/05/06 12:42:35;;;;;;;19.05;12.38;;;;;;;;;;10321386;28;20562;-59
2023/05/06 12:47:36;;;;;;;21.95;12.60;;;;;;;;;;10331709;28;20033;-62
2023/05/06 12:52:43;;;;;;;17.05;12.23;;;;;;;;;;10319829;28;20022;-61
2023/05/06 12:57:43;;;;;;;22.95;11.00;;;;;;;;;;10306487;28;20031;-62
2023/05/06 13:02:47;;;;;;;14.68;10.68;;;;;;;;;;10335869;28;20045;-64
2023/05/06 13:07:47;;;;;;;13.32;9.50;;;;;;;;;;10323203;28;20023;-64
2023/05/06 13:12:48;;;;;;;20.83;10.52;;;;;;;;;;10320941;28;20422;-65
2023/05/06 13:17:49;;;;;;;13.82;9.52;;;;;;;;;;10322645;28;20575;-65
2023/05/06 13:22:49;;;;;;;15.05;9.57;;;;;;;;;;10295164;28;20048;-64
2023/05/06 13:27:51;;;;;;;13.88;9.55;;;;;;;;;;10316840;28;20030;-62
2023/05/06 13:32:52;;;;;;;12.50;8.75;;;;;;;;;;10327236;28;20060;-62
2023/05/06 13:37:52;;;;;;;11.80;8.32;;;;;;;;;;10318777;28;20061;-62
2023/05/06 13:42:54;;;;;;;12.52;8.25;;;;;;;;;;10305503;28;20054;-64
2023/05/06 13:47:55;;;;;;;16.67;7.45;;;;;;;;;;10312745;28;20035;-63
2023/05/06 13:52:55;;;;;;;8.23;7.05;;;;;;;;;;10328139;28;20031;-63
2023/05/06 13:57:56;;;;;;;10.65;7.05;;;;;;;;;;10323133;28;20066;-63
2023/05/06 14:02:56;;;;;;;9.27;7.75;;;;;;;;;;10320100;28;20038;-64
2023/05/06 14:07:57;;;;;;;12.98;7.63;;;;;;;;;;10312054;28;20053;-61
2023/05/06 14:12:58;;;;;;;8.38;7.57;;;;;;;;;;10304643;28;20038;-62
2023/05/06 14:17:58;;;;;;;9.30;7.55;;;;;;;;;;10325592;28;20083;-59
2023/05/06 14:22:59;;;;;;;10.15;6.75;;;;;;;;;;10317448;28;20110;-58
2023/05/06 14:27:59;;;;;;;15.80;7.55;;;;;;;;;;10318112;28;20050;-59
2023/05/06 14:33:00;;;;;;;9.70;7.38;;;;;;;;;;10335688;28;20030;-57
2023/05/06 14:38:00;;;;;;;8.80;7.25;;;;;;;;;;10333277;28;20031;-59
2023/05/06 14:43:02;;;;;;;9.77;7.43;;;;;;;;;;10323341;28;20533;-58
2023/05/06 14:48:03;;;;;;;12.40;7.70;;;;;;;;;;10331382;28;20058;-59
2023/05/06 14:53:03;;;;;;;8.68;7.05;;;;;;;;;;10342109;28;20374;-58
2023/05/06 14:58:04;;;;;;;7.75;6.90;;;;;;;;;;10328202;28;20038;-58
2023/05/06 15:03:05;;;;;;;9.60;7.10;;;;;;;;;;10314430;28;20373;-59
2023/05/06 15:08:05;;;;;;;8.75;6.90;;;;;;;;;;10313079;28;20489;-59
2023/05/06 15:13:06;;;;;;;9.93;7.03;;;;;;;;;;10318930;28;20038;-59
2023/05/06 15:18:07;;;;;;;7.63;6.20;;;;;;;;;;10310632;28;20485;-59
2023/05/06 15:23:07;;;;;;;11.70;7.13;;;;;;;;;;10330063;28;20459;-59
2023/05/06 15:28:08;;;;;;;16.85;6.15;;;;;;;;;;10329119;28;20640;-58
2023/05/06 15:33:08;;;;;;;11.70;5.97;;;;;;;;;;10323675;28;20441;-59
2023/05/06 15:38:09;;;;;;;8.80;5.97;;;;;;;;;;10318083;28;20511;-59
2023/05/06 15:43:11;;;;;;;6.15;5.53;;;;;;;;;;10329279;28;20121;-59
2023/05/06 15:48:11;;;;;;;9.38;6.43;;;;;;;;;;10313470;28;20038;-59
2023/05/06 15:53:12;;;;;;;9.93;7.88;;;;;;;;;;10328056;28;20037;-59
2023/05/06 15:58:13;;;;;;;11.13;9.50;;;;;;;;;;10328414;28;20445;-58
2023/05/06 16:03:13;;;;;;;10.15;8.77;;;;;;;;;;10323011;28;20041;-54
2023/05/06 16:08:14;;;;;;;10.85;9.32;;;;;;;;;;10317526;28;20410;-60
2023/05/06 16:13:14;;;;;;;10.35;9.25;;;;;;;;;;10313161;28;20516;-59
2023/05/06 16:18:15;;;;;;;11.38;8.82;;;;;;;;;;10322013;28;20105;-59
2023/05/06 16:23:16;;;;;;;19.48;9.15;;;;;;;;;;10328157;28;20584;-59
2023/05/06 16:28:16;;;;;;;9.80;8.40;;;;;;;;;;10328411;28;20030;-60
2023/05/06 16:33:17;;;;;;;10.73;7.88;;;;;;;;;;10307565;28;20030;-59
2023/05/06 16:38:17;;;;;;;8.82;6.95;;;;;;;;;;10325799;28;20077;-59
2023/05/06 16:43:18;;;;;;;7.03;5.65;;;;;;;;;;10328270;28;20100;-60
2023/05/06 16:48:19;;;;;;;8.38;5.65;;;;;;;;;;10325973;28;20143;-58
2023/05/06 16:53:19;;;;;;;10.18;5.97;;;;;;;;;;10320068;28;20030;-62
2023/05/06 16:58:20;;;;;;;8.75;5.50;;;;;;;;;;10314886;28;20038;-62
2023/05/06 17:03:21;;;;;;;10.25;5.28;;;;;;;;;;10313325;28;20034;-62
2023/05/06 17:08:21;;;;;;;6.18;5.43;;;;;;;;;;10304184;28;20038;-63
2023/05/06 17:13:22;;;;;;;6.63;4.90;;;;;;;;;;10325404;28;20030;-62
2023/05/06 17:18:23;;;;;;;11.13;5.53;;;;;;;;;;10317057;28;20104;-63
2023/05/06 17:23:24;;;;;;;6.38;5.03;;;;;;;;;;10314709;28;20406;-61
2023/05/06 17:28:25;;;;;;;12.05;5.28;;;;;;;;;;10318219;28;20122;-62
2023/05/06 17:33:25;;;;;;;7.65;5.30;;;;;;;;;;10313603;28;20054;-59
2023/05/06 17:38:26;;;;;;;8.20;5.40;;;;;;;;;;10324588;28;20038;-59
2023/05/06 17:43:26;;;;;;;7.22;5.03;;;;;;;;;;10323287;28;20443;-57
2023/05/06 17:48:27;;;;;;;8.27;4.90;;;;;;;;;;10314409;28;20564;-55
2023/05/06 17:53:28;;;;;;;10.70;5.20;;;;;;;;;;10310604;28;20027;-55
2023/05/06 17:58:29;;;;;;;14.80;4.93;;;;;;;;;;10321867;28;20038;-53
2023/05/06 18:03:29;;;;;;;13.60;5.10;;;;;;;;;;10300618;28;20035;-62
2023/05/06 18:08:30;;;;;;;12.60;5.65;;;;;;;;;;10300429;28;20023;-60
2023/05/06 18:13:35;;;;;;;9.40;5.63;;;;;;;;;;10308748;28;20045;-59
2023/05/06 18:18:36;;;;;;;8.27;5.03;;;;;;;;;;10312178;28;20057;-60
2023/05/06 18:23:36;;;;;;;13.18;4.95;;;;;;;;;;10316283;28;20039;-61
2023/05/06 18:28:38;;;;;;;6.13;4.88;;;;;;;;;;10289380;28;20042;-61
2023/05/06 18:33:39;;;;;;;10.60;4.57;;;;;;;;;;10296726;28;20030;-57
2023/05/06 18:38:39;;;;;;;7.30;4.95;;;;;;;;;;10299106;28;20035;-58
2023/05/06 18:43:40;;;;;;;5.43;4.53;;;;;;;;;;10294905;28;20156;-56
2023/05/06 18:48:40;;;;;;;6.05;4.53;;;;;;;;;;10290776;28;20030;-58
2023/05/06 18:53:42;;;;;;;5.50;4.13;;;;;;;;;;10297344;28;20429;-62
2023/05/06 18:58:43;;;;;;;28.58;7.25;;;;;;;;;;10308959;28;20526;-58
2023/05/06 19:03:43;;;;;;;16.70;6.00;;;;;;;;;;10320574;28;20033;-61
2023/05/06 19:08:44;;;;;;;12.45;5.38;;;;;;;;;;10310378;28;20475;-56
2023/05/06 19:13:45;;;;;;;19.98;5.40;;;;;;;;;;10308033;28;20101;-56
2023/05/06 19:18:46;;;;;;;23.27;6.15;;;;;;;;;;10309695;28;20501;-53
2023/05/06 19:23:47;;;;;;;14.77;5.03;;;;;;;;;;10334444;28;20037;-60
2023/05/06 19:28:48;;;;;;;12.35;5.13;;;;;;;;;;10326179;28;20364;-58
2023/05/06 19:33:48;;;;;;;11.45;4.97;;;;;;;;;;10321944;28;20026;-60
2023/05/06 19:38:49;;;;;;;9.07;4.55;;;;;;;;;;10310278;28;20030;-59
2023/05/06 19:43:50;;;;;;;7.55;4.82;;;;;;;;;;10330591;28;20049;-58
2023/05/06 19:48:50;;;;;;;11.48;5.47;;;;;;;;;;10319055;28;20035;-63
2023/05/06 19:53:51;;;;;;;10.45;4.70;;;;;;;;;;10319492;28;20026;-57
2023/05/06 19:58:52;;;;;;;8.15;4.72;;;;;;;;;;10319295;28;20026;-62
2023/05/06 20:03:53;;;;;;;10.75;4.68;;;;;;;;;;10308600;28;20202;-63
2023/05/06 20:08:54;;;;;;;9.60;4.25;;;;;;;;;;10323468;28;20038;-59
2023/05/06 20:13:55;;;;;;;8.50;4.97;;;;;;;;;;10327447;28;20490;-59
2023/05/06 20:18:55;;;;;;;7.57;4.15;;;;;;;;;;10316873;28;20027;-61
2023/05/06 20:23:56;;;;;;;7.40;4.25;;;;;;;;;;10329587;28;20363;-63
2023/05/06 20:28:57;;;;;;;13.38;4.30;;;;;;;;;;10318501;28;20437;-62
2023/05/06 20:33:57;;;;;;;10.38;4.15;;;;;;;;;;10317757;28;20035;-62
2023/05/06 20:38:59;;;;;;;5.38;4.40;;;;;;;;;;10309438;28;20034;-61
2023/05/06 20:44:00;;;;;;;10.50;4.32;;;;;;;;;;10309129;28;20101;-63
2023/05/06 20:49:01;;;;;;;8.93;4.32;;;;;;;;;;10316801;28;20031;-63
2023/05/06 20:54:01;;;;;;;6.85;4.30;;;;;;;;;;10303506;28;20477;-63
2023/05/06 20:59:02;;;;;;;5.82;4.05;;;;;;;;;;10321917;28;20030;-59
2023/05/06 21:04:03;;;;;;;10.00;4.63;;;;;;;;;;10310155;28;20030;-62
2023/05/06 21:09:05;;;;;;;8.10;3.80;;;;;;;;;;10310288;28;20218;-60
2023/05/06 21:14:06;;;;;;;8.52;4.38;;;;;;;;;;10306278;28;20038;-62
2023/05/06 21:19:06;;;;;;;7.22;4.03;;;;;;;;;;10333090;28;20026;-52
2023/05/06 21:24:07;;;;;;;4.90;3.80;;;;;;;;;;10323341;28;20030;-56
2023/05/06 21:29:08;;;;;;;7.97;4.10;;;;;;;;;;10323169;28;20030;-52
2023/05/06 21:34:09;;;;;;;5.65;4.10;;;;;;;;;;10323010;28;20096;-60
2023/05/06 21:39:12;;;;;;;13.10;4.85;;;;;;;;;;10318647;28;20577;-59
2023/05/06 21:44:12;;;;;;;15.85;4.90;;;;;;;;;;10316361;28;20143;-63
2023/05/06 21:49:13;;;;;;;11.65;4.43;;;;;;;;;;10323156;28;20039;-62
2023/05/06 21:54:15;;;;;;;12.60;4.80;;;;;;;;;;10340579;28;20026;-52
2023/05/06 21:59:16;;;;;;;7.93;4.53;;;;;;;;;;10318435;28;20573;-48
2023/05/06 22:04:18;;;;;;;8.80;5.00;;;;;;;;;;10320839;28;20041;-62
2023/05/06 22:09:20;;;;;;;15.30;5.00;;;;;;;;;;10307589;28;20026;-63
2023/05/06 22:14:20;;;;;;;9.02;4.55;;;;;;;;;;10332785;28;20030;-48
2023/05/06 22:19:21;;;;;;;9.35;4.60;;;;;;;;;;10320041;28;20466;-57
2023/05/06 22:24:22;;;;;;;9.68;4.38;;;;;;;;;;10323231;28;20367;-52
2023/05/06 22:29:22;;;;;;;7.95;4.38;;;;;;;;;;10333152;28;20034;-50
2023/05/06 22:34:23;;;;;;;6.72;4.47;;;;;;;;;;10325186;28;20030;-48
2023/05/06 22:39:23;;;;;;;14.63;4.78;;;;;;;;;;10302886;28;20035;-60
2023/05/06 22:44:24;;;;;;;7.50;4.43;;;;;;;;;;10320463;28;20051;-53
2023/05/06 22:49:27;;;;;;;6.18;4.00;;;;;;;;;;10310956;28;20041;-57
2023/05/06 22:54:28;;;;;;;7.88;4.75;;;;;;;;;;10311357;28;20049;-54
2023/05/06 22:59:29;;;;;;;6.72;3.67;;;;;;;;;;10335096;28;20032;-59
2023/05/06 23:04:29;;;;;;;6.88;4.55;;;;;;;;;;10323717;28;20373;-62
2023/05/06 23:09:30;;;;;;;8.00;4.25;;;;;;;;;;10317057;28;20100;-57
2023/05/06 23:14:30;;;;;;;7.38;4.47;;;;;;;;;;10301362;28;20026;-60
2023/05/06 23:19:32;;;;;;;8.07;3.45;;;;;;;;;;10311418;28;20030;-59
2023/05/06 23:24:32;;;;;;;10.40;4.40;;;;;;;;;;10329659;28;20117;-58
2023/05/06 23:29:33;;;;;;;5.28;3.40;;;;;;;;;;10322849;28;20026;-56
2023/05/06 23:34:33;;;;;;;9.63;4.05;;;;;;;;;;10315563;28;20047;-61
2023/05/06 23:39:34;;;;;;;4.72;3.97;;;;;;;;;;10318283;28;20030;-59
2023/05/06 23:44:35;;;;;;;5.78;3.75;;;;;;;;;;10330063;28;20053;-61
2023/05/06 23:49:36;;;;;;;8.45;4.45;;;;;;;;;;10311710;28;20042;-61
2023/05/06 23:54:37;;;;;;;7.10;4.40;;;;;;;;;;10310323;28;20027;-58
2023/05/06 23:59:38;;;;;;;7.45;3.85;;;;;;;;;;10296168;28;20026;-59
